createdAt,value
2023-02-03T00:01:57.447Z,99055.59
2023-02-03T00:04:24.109Z,99052.06
2023-02-03T00:06:51.234Z,99057.31
2023-02-03T00:09:18.429Z,99054.81
2023-02-03T00:11:45.796Z,99055.66
2023-02-03T00:14:12.623Z,99049.66
2023-02-03T00:16:39.339Z,99046.19
2023-02-03T00:19:06.112Z,99039.31
2023-02-03T00:21:33.414Z,99028.94
2023-02-03T00:24:00.041Z,99022.78
2023-02-03T00:26:28.738Z,99028.00
2023-02-03T00:28:55.657Z,99030.72
2023-02-03T00:31:24.839Z,99019.38
2023-02-03T00:33:56.953Z,99017.66
2023-02-03T00:36:24.859Z,99015.06
2023-02-03T00:38:51.713Z,99017.66
2023-02-03T00:41:19.337Z,99009.88
2023-02-03T00:43:45.899Z,99006.34
2023-02-03T00:46:12.818Z,99009.88
2023-02-03T00:48:39.391Z,99009.88
2023-02-03T00:51:06.658Z,99005.53
2023-02-03T00:53:33.526Z,98997.72
2023-02-03T00:56:00.212Z,99002.09
2023-02-03T00:58:26.720Z,98996.03
2023-02-03T01:00:55.962Z,98991.69
2023-02-03T01:03:22.948Z,98992.56
2023-02-03T01:05:49.691Z,99001.22
2023-02-03T01:08:16.402Z,98999.53
2023-02-03T01:10:43.057Z,98997.75
2023-02-03T01:13:09.722Z,99000.41
2023-02-03T01:15:36.554Z,98999.53
2023-02-03T01:18:03.158Z,98975.22
2023-02-03T01:20:29.845Z,98970.88
2023-02-03T01:22:56.532Z,98966.53
2023-02-03T01:25:23.062Z,98975.25
2023-02-03T01:27:49.682Z,98976.09
2023-02-03T01:30:16.535Z,98962.19
2023-02-03T01:32:43.274Z,98964.78
2023-02-03T01:35:09.801Z,98962.22
2023-02-03T01:37:36.500Z,98973.50
2023-02-03T01:40:03.471Z,98962.22
2023-02-03T01:42:33.905Z,98940.50
2023-02-03T01:45:00.665Z,98936.16
2023-02-03T01:47:33.307Z,98926.59
2023-02-03T01:50:18.429Z,98935.28
2023-02-03T01:52:51.151Z,98933.53
2023-02-03T01:55:21.251Z,98932.66
2023-02-03T01:57:57.616Z,98942.28
2023-02-03T02:00:24.773Z,98945.75
2023-02-03T02:02:52.602Z,98944.91
2023-02-03T02:05:35.558Z,98937.97
2023-02-03T02:08:04.010Z,98936.22
2023-02-03T02:10:32.076Z,98934.47
2023-02-03T02:13:01.006Z,98933.63
2023-02-03T02:15:53.510Z,98926.66
2023-02-03T02:18:51.253Z,98943.19
2023-02-03T02:21:36.562Z,98937.13
2023-02-03T02:24:50.011Z,98939.75
2023-02-03T02:27:32.703Z,98939.72
2023-02-03T02:30:30.317Z,98951.06
2023-02-03T02:33:08.381Z,98938.84
2023-02-03T02:36:08.467Z,98931.91
2023-02-03T02:38:45.512Z,98936.28
2023-02-03T02:41:37.498Z,98934.50
2023-02-03T02:44:16.376Z,98933.66
2023-02-03T02:46:52.913Z,98951.06
2023-02-03T02:49:25.275Z,98949.34
2023-02-03T02:51:54.042Z,98965.88
2023-02-03T02:54:24.346Z,98958.91
2023-02-03T02:56:58.031Z,98935.47
2023-02-03T02:59:24.594Z,98920.66
2023-02-03T03:01:51.560Z,98926.75
2023-02-03T03:04:23.525Z,98918.06
2023-02-03T03:06:55.972Z,98921.56
2023-02-03T03:09:27.533Z,98916.31
2023-02-03T03:12:00.025Z,98914.56
2023-02-03T03:14:31.434Z,98915.47
2023-02-03T03:17:03.124Z,98922.44
2023-02-03T03:19:47.170Z,98924.16
2023-02-03T03:22:17.754Z,98932.84
2023-02-03T03:24:49.005Z,98938.97
2023-02-03T03:27:22.623Z,98947.66
2023-02-03T03:29:54.398Z,98945.94
2023-02-03T03:32:21.833Z,98925.91
2023-02-03T03:34:49.219Z,98932.00
2023-02-03T03:37:23.436Z,98921.56
2023-02-03T03:40:00.282Z,98905.03
2023-02-03T03:42:47.855Z,98878.06
2023-02-03T03:45:35.055Z,98890.25
2023-02-03T03:48:19.790Z,98888.47
2023-02-03T03:50:58.694Z,98894.59
2023-02-03T03:53:29.315Z,98901.53
2023-02-03T03:55:57.549Z,98897.19
2023-02-03T03:58:31.026Z,98901.53
2023-02-03T04:01:04.005Z,98900.66
2023-02-03T04:03:39.881Z,98890.25
2023-02-03T04:06:06.741Z,98906.75
2023-02-03T04:08:33.448Z,98906.75
2023-02-03T04:10:59.937Z,98918.03
2023-02-03T04:13:26.539Z,98923.28
2023-02-03T04:15:53.160Z,98918.06
2023-02-03T04:18:19.853Z,98923.28
2023-02-03T04:20:46.403Z,98905.91
2023-02-03T04:23:13.063Z,98897.19
2023-02-03T04:25:39.629Z,98903.28
2023-02-03T04:28:06.828Z,98907.63
2023-02-03T04:30:33.618Z,98911.13
2023-02-03T04:33:00.329Z,98900.69
2023-02-03T04:35:27.086Z,98908.50
2023-02-03T04:37:53.659Z,98905.91
2023-02-03T04:40:20.461Z,98905.00
2023-02-03T04:42:47.087Z,98895.47
2023-02-03T04:45:13.698Z,98885.88
2023-02-03T04:47:40.455Z,98867.63
2023-02-03T04:50:07.421Z,98859.81
2023-02-03T04:52:34.060Z,98843.25
2023-02-03T04:55:00.652Z,98841.50
2023-02-03T04:57:27.215Z,98841.53
2023-02-03T04:59:53.816Z,98845.88
2023-02-03T05:02:20.384Z,98841.53
2023-02-03T05:04:46.921Z,98838.94
2023-02-03T05:07:13.443Z,98828.47
2023-02-03T05:09:40.016Z,98803.25
2023-02-03T05:12:06.725Z,98816.28
2023-02-03T05:14:33.383Z,98824.13
2023-02-03T05:16:59.950Z,98811.94
2023-02-03T05:19:26.609Z,98797.97
2023-02-03T05:21:53.311Z,98794.50
2023-02-03T05:24:19.874Z,98791.91
2023-02-03T05:26:46.523Z,98787.56
2023-02-03T05:29:13.134Z,98797.13
2023-02-03T05:31:39.768Z,98798.00
2023-02-03T05:34:06.384Z,98804.09
2023-02-03T05:36:32.869Z,98816.25
2023-02-03T05:38:59.562Z,98811.91
2023-02-03T05:41:44.676Z,98804.06
2023-02-03T05:44:11.376Z,98803.16
2023-02-03T05:46:38.155Z,98806.66
2023-02-03T05:49:04.811Z,98792.75
2023-02-03T05:51:31.435Z,98788.34
2023-02-03T05:53:58.040Z,98791.00
2023-02-03T05:56:24.664Z,98793.59
2023-02-03T05:58:54.129Z,98777.91
2023-02-03T06:01:20.873Z,98777.03
2023-02-03T06:03:48.434Z,98778.78
2023-02-03T06:06:15.919Z,98777.03
2023-02-03T06:08:43.011Z,98775.25
2023-02-03T06:11:10.748Z,98768.38
2023-02-03T06:13:37.591Z,98770.06
2023-02-03T06:16:04.779Z,98766.53
2023-02-03T06:18:31.722Z,98768.28
2023-02-03T06:20:58.355Z,98758.72
2023-02-03T06:23:25.114Z,98763.06
2023-02-03T06:25:52.277Z,98767.38
2023-02-03T06:28:19.470Z,98750.81
2023-02-03T06:30:49.396Z,98746.50
2023-02-03T06:33:15.954Z,98750.88
2023-02-03T06:35:42.658Z,98745.63
2023-02-03T06:38:09.353Z,98753.47
2023-02-03T06:40:35.908Z,98773.47
2023-02-03T06:43:02.502Z,98775.22
2023-02-03T06:45:29.213Z,98759.53
2023-02-03T06:47:56.008Z,98763.84
2023-02-03T06:50:22.584Z,98760.41
2023-02-03T06:52:50.324Z,98754.28
2023-02-03T06:55:17.067Z,98750.78
2023-02-03T06:57:45.524Z,98745.53
2023-02-03T07:00:15.493Z,98737.72
2023-02-03T07:02:43.686Z,98736.84
2023-02-03T07:05:10.733Z,98740.31
2023-02-03T07:07:39.742Z,98747.28
2023-02-03T07:10:07.757Z,98746.44
2023-02-03T07:12:34.533Z,98745.56
2023-02-03T07:15:01.302Z,98751.63
2023-02-03T07:17:27.989Z,98738.56
2023-02-03T07:19:54.620Z,98750.72
2023-02-03T07:22:21.323Z,98738.56
2023-02-03T07:24:48.004Z,98753.31
2023-02-03T07:27:14.607Z,98746.44
2023-02-03T07:29:41.261Z,98752.47
2023-02-03T07:32:08.050Z,98756.81
2023-02-03T07:34:34.736Z,98763.78
2023-02-03T07:37:01.385Z,98763.72
2023-02-03T07:39:28.040Z,98766.34
2023-02-03T07:41:54.785Z,98761.09
2023-02-03T07:44:21.746Z,98748.06
2023-02-03T07:46:48.534Z,98745.41
2023-02-03T07:49:15.593Z,98748.03
2023-02-03T07:51:42.402Z,98755.03
2023-02-03T07:54:09.074Z,98752.41
2023-02-03T07:56:35.971Z,98754.16
2023-02-03T07:59:03.011Z,98753.28
2023-02-03T08:01:31.343Z,98751.53
2023-02-03T08:03:58.017Z,98773.28
2023-02-03T08:06:25.745Z,98770.69
2023-02-03T08:08:54.320Z,98770.66
2023-02-03T08:11:20.976Z,98768.94
2023-02-03T08:13:47.616Z,98753.25
2023-02-03T08:16:14.281Z,98745.41
2023-02-03T08:18:41.053Z,98734.94
2023-02-03T08:21:07.746Z,98750.66
2023-02-03T08:23:34.511Z,98744.59
2023-02-03T08:26:01.123Z,98726.16
2023-02-03T08:28:27.720Z,98733.19
2023-02-03T08:30:54.542Z,98720.94
2023-02-03T08:33:21.152Z,98717.47
2023-02-03T08:35:49.631Z,98721.78
2023-02-03T08:38:16.694Z,98718.34
2023-02-03T08:40:43.500Z,98703.50
2023-02-03T08:43:10.484Z,98686.94
2023-02-03T08:45:37.275Z,98691.19
2023-02-03T08:48:04.094Z,98691.25
2023-02-03T08:50:31.059Z,98659.78
2023-02-03T08:52:57.742Z,98673.75
2023-02-03T08:55:24.672Z,98665.03
2023-02-03T08:57:51.309Z,98685.94
2023-02-03T09:00:18.413Z,98680.63
2023-02-03T09:02:45.166Z,98682.41
2023-02-03T09:05:11.911Z,98683.28
2023-02-03T09:07:38.683Z,98692.88
2023-02-03T09:10:05.702Z,98688.44
2023-02-03T09:12:32.428Z,98683.22
2023-02-03T09:14:59.209Z,98679.72
2023-02-03T09:17:26.050Z,98678.84
2023-02-03T09:19:52.697Z,98677.03
2023-02-03T09:22:19.471Z,98669.25
2023-02-03T09:24:46.147Z,98680.59
2023-02-03T09:27:13.037Z,98669.25
2023-02-03T09:29:39.780Z,98672.72
2023-02-03T09:32:09.138Z,98665.75
2023-02-03T09:34:36.358Z,98646.59
2023-02-03T09:37:04.464Z,98642.25
2023-02-03T09:39:31.427Z,98627.41
2023-02-03T09:42:10.432Z,98630.00
2023-02-03T09:44:47.085Z,98625.59
2023-02-03T09:47:21.611Z,98617.81
2023-02-03T09:49:55.688Z,98617.84
2023-02-03T09:52:25.709Z,98597.81
2023-02-03T09:55:06.026Z,98610.84
2023-02-03T09:57:42.999Z,98606.47
2023-02-03T10:00:26.622Z,98628.22
2023-02-03T10:03:08.289Z,98635.25
2023-02-03T10:05:57.642Z,98629.16
2023-02-03T10:08:51.588Z,98612.59
2023-02-03T10:11:27.109Z,98632.56
2023-02-03T10:14:10.003Z,98638.63
2023-02-03T10:16:57.291Z,98605.50
2023-02-03T10:19:37.593Z,98622.94
2023-02-03T10:22:05.888Z,98606.31
2023-02-03T10:24:41.107Z,98615.00
2023-02-03T10:27:18.837Z,98609.81
2023-02-03T10:29:50.924Z,98601.84
2023-02-03T10:32:17.626Z,98605.34
2023-02-03T10:34:47.645Z,98604.41
2023-02-03T10:37:30.251Z,98593.13
2023-02-03T10:39:59.073Z,98594.84
2023-02-03T10:42:26.181Z,98600.91
2023-02-03T10:45:00.136Z,98605.25
2023-02-03T10:47:36.833Z,98589.66
2023-02-03T10:50:16.220Z,98587.94
2023-02-03T10:52:42.756Z,98600.13
2023-02-03T10:55:31.331Z,98598.41
2023-02-03T10:57:58.718Z,98604.56
2023-02-03T11:00:34.765Z,98612.50
2023-02-03T11:03:18.555Z,98594.25
2023-02-03T11:05:45.206Z,98605.66
2023-02-03T11:08:16.424Z,98583.06
2023-02-03T11:10:44.107Z,98581.34
2023-02-03T11:13:17.488Z,98572.59
2023-02-03T11:15:51.679Z,98555.09
2023-02-03T11:18:37.223Z,98535.94
2023-02-03T11:21:17.928Z,98531.59
2023-02-03T11:23:54.545Z,98516.69
2023-02-03T11:26:36.246Z,98483.56
2023-02-03T11:29:06.650Z,98469.44
2023-02-03T11:31:36.456Z,98446.78
2023-02-03T11:34:21.228Z,98433.59
2023-02-03T11:36:47.889Z,98453.53
2023-02-03T11:39:29.911Z,98455.31
2023-02-03T11:41:57.016Z,98464.06
2023-02-03T11:44:29.292Z,98471.91
2023-02-03T11:47:11.924Z,98507.66
2023-02-03T11:50:14.583Z,98517.22
2023-02-03T11:52:59.595Z,98521.75
2023-02-03T11:55:46.826Z,98532.22
2023-02-03T11:58:41.356Z,98521.09
2023-02-03T12:01:43.572Z,98516.66
2023-02-03T12:04:32.792Z,98499.28
2023-02-03T12:07:11.925Z,98511.53
2023-02-03T12:09:46.520Z,98498.38
2023-02-03T12:12:31.155Z,98514.00
2023-02-03T12:15:00.742Z,98510.41
2023-02-03T12:17:36.738Z,98511.50
2023-02-03T12:20:03.529Z,98520.25
2023-02-03T12:22:45.215Z,98508.06
2023-02-03T12:25:22.987Z,98514.16
2023-02-03T12:28:31.346Z,98529.03
2023-02-03T12:31:12.811Z,98521.25
2023-02-03T12:33:48.926Z,98513.34
2023-02-03T12:36:21.172Z,98520.34
2023-02-03T12:38:56.360Z,98529.03
2023-02-03T12:41:28.485Z,98521.16
2023-02-03T12:44:02.169Z,98524.53
2023-02-03T12:46:47.164Z,98529.81
2023-02-03T12:49:32.996Z,98527.25
2023-02-03T12:52:05.539Z,98528.94
2023-02-03T12:54:49.935Z,98532.38
2023-02-03T12:57:30.865Z,98542.88
2023-02-03T13:00:07.363Z,98522.78
2023-02-03T13:02:45.867Z,98532.38
2023-02-03T13:05:44.285Z,98524.44
2023-02-03T13:08:30.303Z,98537.50
2023-02-03T13:11:24.829Z,98540.94
2023-02-03T13:14:19.559Z,98546.19
2023-02-03T13:16:53.464Z,98534.78
2023-02-03T13:19:34.101Z,98549.63
2023-02-03T13:22:00.547Z,98546.06
2023-02-03T13:24:29.216Z,98568.78
2023-02-03T13:27:04.832Z,98583.63
2023-02-03T13:29:48.682Z,98597.75
2023-02-03T13:32:32.264Z,98595.22
2023-02-03T13:35:04.544Z,98590.97
2023-02-03T13:37:40.267Z,98596.25
2023-02-03T13:40:22.783Z,98590.06
2023-02-03T13:43:00.805Z,98592.63
2023-02-03T13:45:32.547Z,98583.03
2023-02-03T13:48:29.810Z,98560.34
2023-02-03T13:51:07.433Z,98555.16
2023-02-03T13:53:39.202Z,98555.19
2023-02-03T13:56:19.805Z,98535.09
2023-02-03T13:59:06.660Z,98542.09
2023-02-03T14:01:38.824Z,98541.25
2023-02-03T14:04:09.234Z,98554.41
2023-02-03T14:06:35.940Z,98572.72
2023-02-03T14:09:19.401Z,98568.34
2023-02-03T14:11:49.411Z,98565.75
2023-02-03T14:14:15.993Z,98580.56
2023-02-03T14:16:54.140Z,98602.44
2023-02-03T14:19:30.754Z,98584.09
2023-02-03T14:22:09.979Z,98598.03
2023-02-03T14:24:40.571Z,98613.72
2023-02-03T14:27:20.388Z,98613.75
2023-02-03T14:30:12.509Z,98613.75
2023-02-03T14:32:54.697Z,98625.94
2023-02-03T14:35:30.251Z,98641.69
2023-02-03T14:38:01.072Z,98635.50
2023-02-03T14:40:46.505Z,98654.72
2023-02-03T14:43:35.049Z,98653.81
2023-02-03T14:46:46.413Z,98661.69
2023-02-03T14:49:38.445Z,98678.25
2023-02-03T14:52:22.641Z,98665.22
2023-02-03T14:55:10.498Z,98671.28
2023-02-03T14:57:39.954Z,98667.00
2023-02-03T15:00:27.763Z,98670.44
2023-02-03T15:03:06.653Z,98680.06
2023-02-03T15:05:33.316Z,98687.91
2023-02-03T15:08:02.292Z,98680.94
2023-02-03T15:10:44.076Z,98689.59
2023-02-03T15:13:28.982Z,98690.47
2023-02-03T15:15:59.055Z,98693.13
2023-02-03T15:18:32.796Z,98696.66
2023-02-03T15:20:59.679Z,98714.03
2023-02-03T15:23:36.909Z,98704.56
2023-02-03T15:26:13.198Z,98722.78
2023-02-03T15:28:39.998Z,98725.41
2023-02-03T15:31:16.784Z,98718.44
2023-02-03T15:33:45.094Z,98724.50
2023-02-03T15:36:18.911Z,98719.31
2023-02-03T15:38:55.973Z,98722.78
2023-02-03T15:41:24.693Z,98729.75
2023-02-03T15:43:58.954Z,98718.47
2023-02-03T15:46:41.225Z,98719.38
2023-02-03T15:49:21.977Z,98718.44
2023-02-03T15:52:01.649Z,98719.38
2023-02-03T15:54:46.197Z,98711.50
2023-02-03T15:57:22.233Z,98714.94
2023-02-03T15:59:57.503Z,98720.16
2023-02-03T16:02:42.361Z,98706.25
2023-02-03T16:05:24.491Z,98701.81
2023-02-03T16:07:51.512Z,98708.81
2023-02-03T16:10:32.345Z,98727.97
2023-02-03T16:13:19.126Z,98746.22
2023-02-03T16:15:59.847Z,98752.38
2023-02-03T16:18:26.434Z,98740.13
2023-02-03T16:20:53.173Z,98754.06
2023-02-03T16:23:23.001Z,98754.19
2023-02-03T16:26:14.669Z,98758.63
2023-02-03T16:28:59.972Z,98756.00
2023-02-03T16:31:45.481Z,98756.03
2023-02-03T16:34:36.707Z,98756.84
2023-02-03T16:37:31.890Z,98763.00
2023-02-03T16:40:16.896Z,98776.94
2023-02-03T16:43:02.288Z,98790.00
2023-02-03T16:45:47.676Z,98775.13
2023-02-03T16:48:32.922Z,98799.56
2023-02-03T16:51:05.900Z,98808.28
2023-02-03T16:53:33.772Z,98806.56
2023-02-03T16:56:04.567Z,98807.34
2023-02-03T16:58:31.625Z,98824.78
2023-02-03T17:01:00.678Z,98823.09
2023-02-03T17:03:28.820Z,98834.41
2023-02-03T17:05:57.167Z,98827.50
2023-02-03T17:08:26.236Z,98834.44
2023-02-03T17:10:52.741Z,98839.63
2023-02-03T17:13:20.766Z,98825.75
2023-02-03T17:15:50.297Z,98825.75
2023-02-03T17:18:17.437Z,98824.03
2023-02-03T17:20:45.819Z,98828.34
2023-02-03T17:23:13.892Z,98810.09
2023-02-03T17:25:40.850Z,98815.31
2023-02-03T17:28:09.142Z,98816.22
2023-02-03T17:30:36.237Z,98822.31
2023-02-03T17:33:13.770Z,98817.94
2023-02-03T17:35:42.888Z,98813.59
2023-02-03T17:38:10.374Z,98818.84
2023-02-03T17:54:24.471Z,98843.22
2023-02-03T17:56:51.277Z,98844.91
2023-02-03T17:59:17.719Z,98844.06
2023-02-03T18:01:44.339Z,98848.41
2023-02-03T18:04:10.966Z,98858.84
2023-02-03T18:06:38.042Z,98855.38
2023-02-03T18:09:06.797Z,98864.97
2023-02-03T18:11:35.614Z,98869.34
2023-02-03T18:14:02.810Z,98865.84
2023-02-03T18:16:33.152Z,98863.25
2023-02-03T18:19:02.331Z,98868.47
2023-02-03T18:21:29.186Z,98862.38
2023-02-03T18:23:59.676Z,98870.22
2023-02-03T18:26:28.969Z,98886.75
2023-02-03T18:28:56.100Z,98878.06
2023-02-03T18:31:22.774Z,98878.03
2023-02-03T18:33:49.454Z,98879.81
2023-02-03T18:36:16.877Z,98887.66
2023-02-03T18:38:45.088Z,98877.19
2023-02-03T18:41:18.069Z,98884.16
2023-02-03T18:43:45.924Z,98892.84
2023-02-03T18:46:33.670Z,98893.72
2023-02-03T18:49:00.914Z,98907.66
2023-02-03T18:51:27.867Z,98898.94
2023-02-03T18:53:59.356Z,98912.84
2023-02-03T18:56:28.529Z,98923.28
2023-02-03T18:58:55.282Z,98920.69
2023-02-03T19:01:24.228Z,98923.28
2023-02-03T19:03:50.965Z,98933.72
2023-02-03T19:06:18.739Z,98939.84
2023-02-03T19:08:46.107Z,98945.03
2023-02-03T19:11:14.025Z,98950.25
2023-02-03T19:13:41.311Z,98961.56
2023-02-03T19:16:09.059Z,98951.13
2023-02-03T19:18:36.348Z,98961.56
2023-02-03T19:21:03.175Z,98953.75
2023-02-03T19:23:30.014Z,98960.72
2023-02-03T19:25:56.692Z,98972.84
2023-02-03T19:28:30.423Z,98970.25
2023-02-03T19:31:08.056Z,98967.63
2023-02-03T19:33:35.267Z,98984.16
2023-02-03T19:36:01.879Z,98980.69
2023-02-03T19:38:28.543Z,98955.47
2023-02-03T19:40:55.224Z,98981.59
2023-02-03T19:43:21.717Z,98993.75
2023-02-03T19:45:48.173Z,98998.09
2023-02-03T19:48:14.621Z,98992.88
2023-02-03T19:50:46.003Z,98996.34
2023-02-03T19:53:13.894Z,99005.91
2023-02-03T19:55:42.581Z,99007.69
2023-02-03T19:58:09.552Z,99022.47
2023-02-03T20:00:36.091Z,99036.38
2023-02-03T20:03:02.648Z,99027.69
2023-02-03T20:05:30.034Z,99032.91
2023-02-03T20:07:56.775Z,99045.91
2023-02-03T20:10:26.415Z,99030.25
2023-02-03T20:12:54.289Z,99048.53
2023-02-03T20:15:21.860Z,99043.31
2023-02-03T20:17:48.976Z,99042.44
2023-02-03T20:20:19.688Z,99043.31
2023-02-03T20:22:47.140Z,99038.97
2023-02-03T20:25:13.773Z,99055.47
2023-02-03T20:27:40.380Z,99058.97
2023-02-03T20:30:07.844Z,99064.19
2023-02-03T20:32:34.581Z,99065.91
2023-02-03T20:35:01.554Z,99074.59
2023-02-03T20:37:28.263Z,99078.06
2023-02-03T20:39:54.926Z,99056.34
2023-02-03T20:42:21.815Z,99071.97
2023-02-03T20:44:48.332Z,99053.63
2023-02-03T20:47:22.269Z,99052.78
2023-02-03T20:49:49.764Z,99069.28
2023-02-03T20:52:19.955Z,99065.75
2023-02-03T20:54:47.000Z,99072.66
2023-02-03T20:57:19.483Z,99070.09
2023-02-03T20:59:46.417Z,99070.09
2023-02-03T21:02:51.515Z,99071.00
2023-02-03T21:05:27.653Z,99067.53
2023-02-03T21:07:55.047Z,99071.84
2023-02-03T21:10:25.130Z,99062.31
2023-02-03T21:12:52.585Z,99067.53
2023-02-03T21:15:23.442Z,99065.78
2023-02-03T21:17:50.017Z,99062.38
2023-02-03T21:20:30.955Z,99078.84
2023-02-03T21:22:58.741Z,99079.66
2023-02-03T21:25:28.800Z,99081.44
2023-02-03T21:27:58.219Z,99098.78
2023-02-03T21:30:32.727Z,99087.50
2023-02-03T21:32:59.974Z,99088.41
2023-02-03T21:35:32.193Z,99088.31
2023-02-03T21:38:04.225Z,99106.56
2023-02-03T21:40:35.079Z,99098.75
2023-02-03T21:43:05.103Z,99102.28
2023-02-03T21:45:36.639Z,99111.78
2023-02-03T21:48:26.156Z,99107.44
2023-02-03T21:50:54.434Z,99111.78
2023-02-03T21:53:25.800Z,99107.47
2023-02-03T21:55:52.822Z,99117.00
2023-02-03T21:58:25.954Z,99128.28
2023-02-03T22:00:55.927Z,99133.47
2023-02-03T22:03:36.225Z,99143.91
2023-02-03T22:06:27.063Z,99159.53
2023-02-03T22:08:58.437Z,99151.75
2023-02-03T22:11:28.050Z,99160.41
2023-02-03T22:13:55.057Z,99170.84
2023-02-03T22:16:22.248Z,99178.72
2023-02-03T22:18:49.549Z,99166.50
2023-02-03T22:21:16.695Z,99169.09
2023-02-03T22:23:43.856Z,99175.06
2023-02-03T22:26:11.543Z,99192.34
2023-02-03T22:28:39.387Z,99199.31
2023-02-03T22:31:07.700Z,99208.00
2023-02-03T22:33:35.748Z,99221.03
2023-02-03T22:36:03.559Z,99213.06
2023-02-03T22:38:30.960Z,99210.44
2023-02-03T22:40:57.616Z,99201.78
2023-02-03T22:43:24.764Z,99197.44
2023-02-03T22:45:52.039Z,99213.06
2023-02-03T22:48:18.774Z,99226.03
2023-02-03T22:50:45.378Z,99228.69
2023-02-03T22:53:12.224Z,99225.13
2023-02-03T22:55:39.677Z,99235.56
2023-02-03T22:58:07.515Z,99228.63
2023-02-03T23:00:34.723Z,99239.78
2023-02-03T23:03:01.478Z,99259.72
2023-02-03T23:05:28.197Z,99268.47
2023-02-03T23:07:54.905Z,99253.72
2023-02-03T23:10:24.944Z,99259.88
2023-02-03T23:12:52.402Z,99256.47
2023-02-03T23:15:19.359Z,99251.19
2023-02-03T23:17:45.938Z,99253.78
2023-02-03T23:20:14.761Z,99271.09
2023-02-03T23:22:41.709Z,99267.63
2023-02-03T23:25:08.781Z,99281.56
2023-02-03T23:27:35.413Z,99277.25
2023-02-03T23:30:02.203Z,99287.69
2023-02-03T23:32:28.762Z,99280.66
2023-02-03T23:35:13.745Z,99273.72
2023-02-03T23:37:40.432Z,99273.75
2023-02-03T23:40:07.472Z,99289.41
2023-02-03T23:42:34.071Z,99284.22
2023-02-03T23:45:00.581Z,99283.50
2023-02-03T23:47:27.269Z,99298.09
2023-02-03T23:49:53.863Z,99295.50
2023-02-03T23:52:20.423Z,99297.28
2023-02-03T23:54:46.885Z,99303.47
2023-02-03T23:57:13.372Z,99307.81
2023-02-03T23:59:40.022Z,99308.59
